Time;durP1;ratioP1;P1;durP2;ratioP2;P2;SDS_P1;SDS_P2;PMS_P1;PMS_P2;Temp;Humidity;BMP_temperature;BMP_pressure;BME280_temperature;BME280_humidity;BME280_pressure;Samples;Min_cycle;Max_cycle;Signal;HPM_P1;HPM_P2
2022/09/09 00:03:35;;;;;;;9.25;3.67;;;;;;;11.33;100.00;100610.63;10312262;28;20073;-77
2022/09/09 00:08:50;;;;;;;18.05;4.70;;;;;;;11.18;100.00;100598.69;10338589;28;20556;-77
2022/09/09 00:13:53;;;;;;;7.68;3.95;;;;;;;11.18;100.00;100609.16;10313639;28;20042;-77
2022/09/09 00:19:20;;;;;;;27.65;6.47;;;;;;;11.06;100.00;100601.66;10307587;28;20042;-77
2022/09/09 00:24:35;;;;;;;8.48;4.07;;;;;;;11.09;100.00;100600.91;10296649;28;20118;-77
2022/09/09 00:29:45;;;;;;;13.55;5.28;;;;;;;11.00;100.00;100598.78;10318476;28;20565;-77
2022/09/09 00:34:49;;;;;;;11.18;5.13;;;;;;;10.94;100.00;100603.78;10297849;28;20502;-77
2022/09/09 00:39:51;;;;;;;31.48;7.70;;;;;;;10.85;100.00;100593.81;10312587;28;20041;-78
2022/09/09 00:45:20;;;;;;;6.78;4.22;;;;;;;10.86;100.00;100595.63;10310624;28;20049;-77
2022/09/09 00:50:39;;;;;;;12.05;4.47;;;;;;;10.88;100.00;100588.72;10314351;28;20419;-77
2022/09/09 00:56:04;;;;;;;15.45;5.13;;;;;;;10.78;100.00;100573.47;10335994;28;20049;-78
2022/09/09 01:01:08;;;;;;;8.20;3.42;;;;;;;10.73;100.00;100573.25;10315672;28;20045;-77
2022/09/09 01:06:31;;;;;;;40.28;6.47;;;;;;;10.69;100.00;100576.56;10334824;28;20050;-77
2022/09/09 01:11:47;;;;;;;38.67;6.30;;;;;;;10.69;100.00;100571.31;10336849;28;20109;-78
2022/09/09 01:16:47;;;;;;;58.17;7.70;;;;;;;10.71;100.00;100569.66;10325253;28;20654;-77
2022/09/09 01:21:53;;;;;;;9.98;4.60;;;;;;;10.68;100.00;100572.16;10315096;28;20046;-77
2022/09/09 01:26:58;;;;;;;13.70;6.72;;;;;;;10.66;100.00;100571.19;10335375;28;20049;-77
2022/09/09 01:32:00;;;;;;;10.15;5.57;;;;;;;10.71;100.00;100577.53;10284049;28;20503;-77
2022/09/09 01:37:07;;;;;;;35.75;7.40;;;;;;;10.68;100.00;100577.41;10308481;28;20061;-77
2022/09/09 01:42:09;;;;;;;15.52;7.15;;;;;;;10.67;100.00;100573.00;10325229;28;20035;-77
2022/09/09 01:47:09;;;;;;;9.90;6.07;;;;;;;10.67;100.00;100578.22;10307046;28;20053;-76
2022/09/09 01:52:10;;;;;;;9.30;5.10;;;;;;;10.70;100.00;100576.66;10322614;28;20146;-77
2022/09/09 01:57:22;;;;;;;19.20;6.22;;;;;;;10.77;100.00;100563.81;10318254;28;20046;-77
2022/09/09 02:02:40;;;;;;;10.20;4.32;;;;;;;10.79;100.00;100570.00;10327375;28;20045;-77
2022/09/09 02:07:47;;;;;;;15.10;5.53;;;;;;;10.73;100.00;100568.00;10327428;28;20029;-77
2022/09/09 02:12:52;;;;;;;14.13;6.35;;;;;;;10.76;100.00;100554.19;10328397;28;20039;-76
2022/09/09 02:17:53;;;;;;;19.63;7.53;;;;;;;10.96;100.00;100563.75;10323256;28;20078;-77
2022/09/09 02:22:54;;;;;;;15.88;6.32;;;;;;;10.87;100.00;100552.91;10323468;28;20085;-77
2022/09/09 02:27:54;;;;;;;18.50;8.23;;;;;;;10.87;100.00;100551.16;10306067;28;20441;-76
2022/09/09 02:32:58;;;;;;;29.08;8.70;;;;;;;10.85;100.00;100547.59;10339501;28;20058;-77
2022/09/09 02:38:01;;;;;;;12.13;6.40;;;;;;;10.85;100.00;100537.09;10312170;28;20527;-77
2022/09/09 02:43:02;;;;;;;14.07;6.47;;;;;;;10.93;100.00;100541.78;10323193;28;20042;-77
2022/09/09 02:48:13;;;;;;;11.15;6.22;;;;;;;10.87;100.00;100535.44;10322555;28;20045;-77
2022/09/09 02:53:20;;;;;;;17.58;7.70;;;;;;;10.91;100.00;100539.09;10306752;28;20383;-77
2022/09/09 02:58:21;;;;;;;17.42;8.55;;;;;;;10.82;100.00;100542.22;10315704;28;20494;-77
2022/09/09 03:03:21;;;;;;;16.38;6.25;;;;;;;10.86;100.00;100546.75;10306730;28;20042;-77
2022/09/09 03:08:23;;;;;;;88.53;16.92;;;;;;;10.88;100.00;100541.59;10330973;28;20034;-77
2022/09/09 03:13:25;;;;;;;13.05;6.88;;;;;;;11.02;100.00;100542.16;10337831;28;20557;-77
2022/09/09 03:18:25;;;;;;;19.92;6.30;;;;;;;11.06;100.00;100541.44;10323276;28;20572;-76
2022/09/09 03:23:26;;;;;;;12.40;7.25;;;;;;;11.13;100.00;100539.97;10320682;28;20081;-77
2022/09/09 03:28:30;;;;;;;25.08;8.73;;;;;;;11.11;100.00;100536.41;10321043;28;20042;-77
2022/09/09 03:33:31;;;;;;;20.63;6.25;;;;;;;11.13;100.00;100551.31;10322291;28;20214;-77
2022/09/09 03:38:31;;;;;;;14.60;6.53;;;;;;;11.12;100.00;100551.28;10322638;28;20088;-77
2022/09/09 03:43:32;;;;;;;15.63;7.50;;;;;;;11.16;100.00;100553.19;10319411;28;20074;-77
2022/09/09 03:48:33;;;;;;;20.00;7.85;;;;;;;11.20;100.00;100560.34;10332335;28;20031;-77
2022/09/09 03:53:34;;;;;;;16.40;6.90;;;;;;;11.30;100.00;100557.25;10332610;28;20061;-77
2022/09/09 03:58:35;;;;;;;14.23;7.47;;;;;;;11.35;100.00;100554.81;10342408;28;20091;-77
2022/09/09 04:03:35;;;;;;;19.85;7.32;;;;;;;11.43;100.00;100553.38;10304965;28;20073;-77
2022/09/09 04:08:37;;;;;;;18.00;6.90;;;;;;;11.33;100.00;100547.72;10333364;28;20034;-77
2022/09/09 04:13:38;;;;;;;17.07;8.73;;;;;;;11.51;100.00;100551.06;10302503;28;20407;-77
2022/09/09 04:18:39;;;;;;;24.83;8.97;;;;;;;11.66;100.00;100550.75;10317961;28;20793;-77
2022/09/09 04:23:39;;;;;;;18.55;7.45;;;;;;;11.74;100.00;100551.06;10326246;28;20038;-77
2022/09/09 04:28:40;;;;;;;18.98;7.22;;;;;;;11.83;100.00;100545.25;10317140;28;20525;-77
2022/09/09 04:33:41;;;;;;;18.55;8.85;;;;;;;11.99;100.00;100547.59;10302401;28;20042;-78
2022/09/09 04:38:41;;;;;;;15.43;8.82;;;;;;;12.10;100.00;100545.41;10316964;28;20517;-77
2022/09/09 04:43:42;;;;;;;24.92;8.70;;;;;;;12.13;100.00;100536.75;10335351;28;20038;-78
2022/09/09 04:48:43;;;;;;;17.50;8.27;;;;;;;12.18;100.00;100535.19;10345047;28;20501;-77
2022/09/09 04:53:46;;;;;;;17.45;10.02;;;;;;;12.28;100.00;100528.56;10313872;28;20042;-77
2022/09/09 04:58:47;;;;;;;19.40;8.60;;;;;;;12.34;100.00;100529.66;10330706;28;20129;-78
2022/09/09 05:03:47;;;;;;;15.30;8.88;;;;;;;12.38;100.00;100525.41;10318240;28;20050;-79
2022/09/09 05:08:50;;;;;;;15.82;7.22;;;;;;;12.26;100.00;100531.09;10310196;28;20038;-78
2022/09/09 05:13:51;;;;;;;17.38;7.03;;;;;;;12.16;100.00;100535.16;10318080;28;20402;-78
2022/09/09 05:18:52;;;;;;;14.80;7.43;;;;;;;12.16;100.00;100536.88;10315795;28;20057;-77
2022/09/09 05:23:53;;;;;;;19.13;7.95;;;;;;;12.27;100.00;100529.41;10315080;28;20093;-77
2022/09/09 05:28:53;;;;;;;13.32;7.07;;;;;;;12.28;100.00;100526.81;10315987;28;20038;-77
2022/09/09 05:33:54;;;;;;;20.25;9.23;;;;;;;12.30;100.00;100538.25;10337778;28;20129;-77
2022/09/09 05:38:54;;;;;;;18.98;8.32;;;;;;;12.41;100.00;100536.00;10337972;28;20046;-78
2022/09/09 05:43:55;;;;;;;19.48;8.05;;;;;;;12.48;100.00;100535.38;10318801;28;20042;-77
2022/09/09 05:48:55;;;;;;;15.95;6.97;;;;;;;12.61;100.00;100534.06;10323874;28;20389;-77
2022/09/09 05:53:58;;;;;;;12.25;8.10;;;;;;;12.81;100.00;100539.09;10324092;28;20034;-79
2022/09/09 05:58:59;;;;;;;;;;;;;;;13.15;100.00;100540.19;10338374;28;20041;-78
2022/09/09 06:04:00;;;;;;;14.30;6.35;;;;;;;14.12;100.00;100537.81;10326631;28;19922;-77
2022/09/09 06:09:01;;;;;;;12.77;6.00;;;;;;;14.38;100.00;100549.94;10345906;28;20116;-77
2022/09/09 06:14:01;;;;;;;23.98;7.90;;;;;;;13.92;100.00;100544.28;10317337;28;20137;-78
2022/09/09 06:19:05;;;;;;;22.10;7.28;;;;;;;13.74;100.00;100542.00;10327810;28;20037;-78
2022/09/09 06:24:07;;;;;;;14.57;7.13;;;;;;;14.40;100.00;100544.72;10347637;28;20050;-75
2022/09/09 06:29:07;;;;;;;12.67;5.97;;;;;;;14.32;100.00;100543.63;10363803;28;20061;-77
2022/09/09 06:34:10;;;;;;;15.38;4.22;;;;;;;14.16;100.00;100544.94;10363035;28;20046;-77
2022/09/09 06:39:11;;;;;;;13.05;4.90;;;;;;;14.39;100.00;100543.81;10325712;28;20049;-77
2022/09/09 06:44:11;;;;;;;11.57;4.38;;;;;;;15.06;100.00;100542.91;10306537;28;20393;-77
2022/09/09 06:49:12;;;;;;;9.73;5.03;;;;;;;15.22;100.00;100536.25;10332766;28;20042;-80
2022/09/09 06:54:13;;;;;;;10.70;4.47;;;;;;;15.84;100.00;100536.72;10323035;28;20425;-78
2022/09/09 06:59:13;;;;;;;9.93;3.78;;;;;;;17.68;100.00;100524.84;10321493;28;20042;-78
2022/09/09 07:04:14;;;;;;;11.25;5.72;;;;;;;17.86;84.55;100518.91;10337305;28;20035;-78
2022/09/09 07:09:15;;;;;;;8.77;4.38;;;;;;;16.54;90.82;100520.50;10321090;28;20146;-81
2022/09/09 07:14:16;;;;;;;11.20;2.73;;;;;;;18.45;90.74;100517.81;10327145;28;20042;-80
2022/09/09 07:19:17;;;;;;;10.68;2.85;;;;;;;20.95;73.51;100516.38;10336948;28;20406;-81
2022/09/09 07:24:17;;;;;;;11.80;1.93;;;;;;;20.97;70.11;100508.38;10318903;28;20047;-80
2022/09/09 07:29:18;;;;;;;6.50;1.47;;;;;;;22.13;65.14;100505.34;10319848;28;20056;-80
2022/09/09 07:34:18;;;;;;;11.67;2.17;;;;;;;22.51;61.33;100513.13;10300598;28;20134;-81
2022/09/09 07:39:19;;;;;;;3.77;1.80;;;;;;;23.16;59.24;100505.44;10316014;28;20054;-80
2022/09/09 07:44:21;;;;;;;7.40;2.57;;;;;;;22.88;61.08;100503.03;10312705;28;20129;-77
2022/09/09 07:49:22;;;;;;;7.53;3.40;;;;;;;21.77;61.10;100515.31;10302060;28;20038;-79
2022/09/09 07:54:33;;;;;;;9.63;3.20;;;;;;;19.06;70.35;100521.88;10316271;28;20050;-77
2022/09/09 07:59:34;;;;;;;5.20;2.75;;;;;;;17.76;75.53;100529.41;10309239;28;20433;-77
2022/09/09 08:04:35;;;;;;;12.80;2.53;;;;;;;16.82;83.67;100528.88;10317054;28;20052;-78
2022/09/09 08:09:35;;;;;;;11.68;2.85;;;;;;;16.62;84.40;100536.47;10300157;28;20572;-78
2022/09/09 08:14:36;;;;;;;11.35;4.07;;;;;;;16.29;86.54;100533.25;10316295;28;20403;-78
2022/09/09 08:19:36;;;;;;;6.88;2.10;;;;;;;16.22;86.99;100539.28;10316214;28;20046;-78
2022/09/09 08:24:37;;;;;;;12.40;4.88;;;;;;;16.97;83.07;100551.19;10314797;28;20041;-77
2022/09/09 08:29:37;;;;;;;5.88;2.38;;;;;;;17.16;80.89;100549.69;10314054;28;20035;-77
2022/09/09 08:34:38;;;;;;;11.45;3.53;;;;;;;17.86;77.47;100559.50;10323229;28;20502;-78
2022/09/09 08:39:38;;;;;;;10.85;1.77;;;;;;;17.91;77.91;100544.56;10316551;28;20084;-77
2022/09/09 08:44:42;;;;;;;17.80;7.75;;;;;;;18.17;75.54;100556.38;10315782;28;20588;-78
2022/09/09 08:49:46;;;;;;;9.38;2.15;;;;;;;17.52;76.71;100551.13;10324307;28;20038;-81
2022/09/09 08:54:47;;;;;;;3.72;1.85;;;;;;;16.79;79.28;100544.69;10319641;28;20074;-81
2022/09/09 08:59:50;;;;;;;10.13;2.58;;;;;;;16.51;83.32;100553.88;10320406;28;20132;-78
2022/09/09 09:05:20;;;;;;;9.15;3.72;;;;;;;16.72;82.37;100561.31;10323686;28;20030;-81
2022/09/09 09:10:47;;;;;;;8.18;2.05;;;;;;;16.74;80.75;100551.66;10337702;28;20074;-79
2022/09/09 09:15:57;;;;;;;6.72;2.17;;;;;;;16.47;83.22;100562.59;10333673;28;20042;-78
2022/09/09 09:21:25;;;;;;;6.85;2.00;;;;;;;16.40;82.49;100564.25;10315333;28;20038;-81
2022/09/09 09:26:31;;;;;;;6.20;1.88;;;;;;;16.20;84.81;100574.41;10310207;28;20471;-78
2022/09/09 09:31:32;;;;;;;6.28;2.92;;;;;;;15.95;85.15;100573.91;10306733;28;20034;-79
2022/09/09 09:36:46;;;;;;;9.77;3.28;;;;;;;15.88;87.97;100572.91;10324078;28;20125;-79
2022/09/09 09:41:47;;;;;;;8.93;3.22;;;;;;;16.28;86.66;100568.44;10325534;28;20207;-80
2022/09/09 09:46:47;;;;;;;9.57;2.10;;;;;;;16.87;82.07;100568.59;10307419;28;20035;-80
2022/09/09 09:51:48;;;;;;;7.80;1.92;;;;;;;17.02;79.35;100570.66;10323203;28;20141;-78
2022/09/09 09:56:49;;;;;;;7.13;2.38;;;;;;;16.77;81.30;100570.19;10328957;28;20091;-78
2022/09/09 10:01:50;;;;;;;6.05;2.08;;;;;;;16.55;80.84;100571.56;10338189;28;20096;-79
2022/09/09 10:06:52;;;;;;;12.95;3.50;;;;;;;16.37;81.84;100570.34;10328371;28;20070;-79
2022/09/09 10:12:08;;;;;;;6.82;2.95;;;;;;;16.22;83.17;100573.59;10337252;28;20560;-79
2022/09/09 10:17:26;;;;;;;4.50;2.78;;;;;;;16.61;81.36;100569.03;10342405;28;20529;-81
2022/09/09 10:22:28;;;;;;;9.13;2.42;;;;;;;17.15;76.76;100572.63;10310910;28;20530;-79
2022/09/09 10:28:06;;;;;;;18.60;6.17;;;;;;;17.09;76.81;100574.25;10326465;28;20121;-84
2022/09/09 10:33:13;;;;;;;5.03;1.77;;;;;;;16.21;84.19;100603.50;10324000;28;20082;-83
2022/09/09 10:38:17;;;;;;;10.23;3.25;;;;;;;15.29;94.80;100591.75;10322165;28;20038;-81
2022/09/09 10:43:45;;;;;;;9.18;3.40;;;;;;;15.30;98.85;100591.81;10322654;28;20085;-82
2022/09/09 10:49:07;;;;;;;6.57;1.83;;;;;;;15.63;97.96;100579.34;10326185;28;20070;-85
2022/09/09 10:54:11;;;;;;;5.75;2.70;;;;;;;15.70;99.15;100579.53;10318182;28;20073;-87
2022/09/09 10:59:14;;;;;;;8.75;2.50;;;;;;;15.55;97.23;100574.78;10330078;28;20052;-80
2022/09/09 11:04:38;;;;;;;6.95;2.25;;;;;;;15.33;99.07;100572.50;10319964;28;20041;-82
2022/09/09 11:09:44;;;;;;;12.98;3.80;;;;;;;15.35;100.00;100584.91;10280487;28;20130;-83
2022/09/09 11:15:04;;;;;;;5.78;2.60;;;;;;;15.22;100.00;100586.34;10263274;28;20042;-80
2022/09/09 11:20:06;;;;;;;10.68;2.90;;;;;;;15.17;100.00;100585.31;10281935;28;20035;-81
2022/09/09 11:25:18;;;;;;;9.05;3.30;;;;;;;15.16;100.00;100594.09;10264807;28;20505;-80
2022/09/09 11:30:24;;;;;;;6.68;3.58;;;;;;;14.82;100.00;100603.78;10264243;28;20047;-79
2022/09/09 11:35:34;;;;;;;8.18;3.20;;;;;;;14.48;100.00;100601.13;10280954;28;20042;-79
2022/09/09 11:40:34;;;;;;;11.93;3.63;;;;;;;14.38;100.00;100593.81;10282431;28;20046;-79
2022/09/09 11:45:35;;;;;;;7.85;4.25;;;;;;;14.93;100.00;100589.13;10263579;28;20039;-80
2022/09/09 11:50:37;;;;;;;8.13;3.08;;;;;;;16.71;100.00;100578.91;10280532;28;20042;-81
2022/09/09 11:55:37;;;;;;;6.18;2.38;;;;;;;18.04;91.54;100585.38;10263294;28;20035;-80
2022/09/09 12:00:40;;;;;;;3.83;1.77;;;;;;;18.32;87.35;100584.78;10281615;28;20065;-79
2022/09/09 12:05:44;;;;;;;5.93;1.83;;;;;;;18.06;88.47;100585.38;10279526;28;20039;-80
2022/09/09 12:10:53;;;;;;;8.18;2.45;;;;;;;18.20;88.64;100583.78;10278490;28;20039;-80
2022/09/09 12:15:55;;;;;;;6.72;2.45;;;;;;;18.81;84.12;100575.56;10263683;28;20031;-81
2022/09/09 12:21:03;;;;;;;7.07;2.25;;;;;;;18.91;83.82;100583.63;10284896;28;20041;-80
2022/09/09 12:26:07;;;;;;;7.22;2.33;;;;;;;19.19;85.24;100577.69;10326564;28;20553;-81
2022/09/09 12:31:07;;;;;;;14.07;9.48;;;;;;;19.05;84.07;100573.16;10330983;28;20053;-80
2022/09/09 12:36:12;;;;;;;9.98;4.93;;;;;;;18.97;85.21;100560.72;10360142;28;20046;-80
2022/09/09 12:41:26;;;;;;;7.07;4.07;;;;;;;18.86;85.98;100565.88;10321235;28;20504;-80
2022/09/09 12:46:31;;;;;;;7.18;2.72;;;;;;;19.01;83.32;100566.03;10320516;28;20054;-80
2022/09/09 12:51:32;;;;;;;7.70;2.92;;;;;;;18.53;80.22;100556.75;10320511;28;20042;-78
2022/09/09 12:56:32;;;;;;;4.50;2.15;;;;;;;18.38;84.61;100560.16;10341953;28;20033;-80
2022/09/09 13:01:33;;;;;;;6.88;2.13;;;;;;;18.84;81.10;100551.72;10304597;28;20034;-79
2022/09/09 13:06:34;;;;;;;5.95;2.33;;;;;;;19.11;80.71;100548.47;10321489;28;20062;-78
2022/09/09 13:11:41;;;;;;;4.78;2.47;;;;;;;18.55;81.39;100545.31;10318019;28;20932;-79
2022/09/09 13:16:42;;;;;;;6.28;2.50;;;;;;;18.36;84.90;100540.69;10316545;28;20125;-78
2022/09/09 13:21:43;;;;;;;3.42;1.80;;;;;;;17.87;85.16;100545.41;10289797;28;20044;-79
2022/09/09 13:26:44;;;;;;;5.53;1.60;;;;;;;17.35;86.14;100536.75;10348253;28;20048;-79
2022/09/09 13:31:45;;;;;;;5.00;1.77;;;;;;;16.42;89.93;100534.34;10347287;28;20436;-81
2022/09/09 13:36:46;;;;;;;3.85;1.60;;;;;;;15.92;93.52;100534.25;10357576;28;20037;-81
2022/09/09 13:41:48;;;;;;;11.40;2.60;;;;;;;15.75;95.15;100539.16;10339575;28;20503;-84
2022/09/09 13:47:02;;;;;;;7.50;3.07;;;;;;;15.59;96.58;100546.75;10329960;28;20050;-85
2022/09/09 13:52:13;;;;;;;6.00;1.88;;;;;;;15.94;98.05;100536.09;10277281;28;20274;-82
2022/09/09 13:57:26;;;;;;;9.40;2.90;;;;;;;17.61;93.60;100540.66;10324387;28;20371;-83
2022/09/09 14:02:27;;;;;;;7.35;2.53;;;;;;;19.74;79.16;100534.69;10321586;28;20502;-80
2022/09/09 14:07:28;;;;;;;3.80;1.60;;;;;;;19.67;76.93;100525.78;10326692;28;20042;-79
2022/09/09 14:12:29;;;;;;;4.43;1.60;;;;;;;18.84;80.03;100525.22;10325120;28;20042;-81
2022/09/09 14:17:30;;;;;;;5.70;1.75;;;;;;;21.97;69.84;100523.19;10324466;28;20060;-82
2022/09/09 14:22:30;;;;;;;4.65;1.00;;;;;;;23.50;61.75;100506.91;10324581;28;20593;-82
2022/09/09 14:27:31;;;;;;;6.67;1.43;;;;;;;24.75;58.48;100504.28;10324479;28;20038;-82
2022/09/09 14:32:34;;;;;;;6.60;2.47;;;;;;;25.25;57.57;100502.50;10321330;28;20044;-82
2022/09/09 14:37:34;;;;;;;5.97;1.63;;;;;;;25.63;54.73;100504.47;10323940;28;20038;-83
2022/09/09 14:42:35;;;;;;;4.00;1.50;;;;;;;23.89;60.30;100509.97;10323702;28;20054;-82
2022/09/09 14:47:36;;;;;;;1.67;1.00;;;;;;;23.74;59.86;100504.81;10323318;28;20061;-82
2022/09/09 14:52:36;;;;;;;5.27;1.60;;;;;;;21.88;66.14;100503.72;10322656;28;20041;-83
2022/09/09 14:57:37;;;;;;;5.35;1.77;;;;;;;21.30;68.42;100505.66;10323628;28;20284;-82
2022/09/09 15:02:38;;;;;;;5.63;1.48;;;;;;;20.60;74.06;100501.28;10322613;28;20055;-82
2022/09/09 15:07:39;;;;;;;7.70;2.72;;;;;;;19.94;75.36;100502.91;10322464;28;20038;-83
2022/09/09 15:12:41;;;;;;;5.50;1.95;;;;;;;19.50;77.20;100493.88;10321641;28;20515;-83
2022/09/09 15:17:43;;;;;;;5.25;1.80;;;;;;;19.34;78.01;100498.19;10322275;28;20037;-83
2022/09/09 15:22:44;;;;;;;3.72;1.50;;;;;;;19.01;78.46;100494.44;10319165;28;20526;-82
2022/09/09 15:27:44;;;;;;;4.72;1.92;;;;;;;18.93;77.63;100489.06;10321151;28;20057;-82
2022/09/09 15:32:45;;;;;;;9.00;1.70;;;;;;;18.63;80.12;100502.97;10337043;28;20030;-82
2022/09/09 15:37:46;;;;;;;3.00;2.00;;;;;;;19.61;78.08;100493.03;10320767;28;20062;-82
2022/09/09 15:42:46;;;;;;;3.55;1.65;;;;;;;20.62;69.66;100480.88;10319950;28;20374;-82
2022/09/09 15:47:49;;;;;;;3.60;1.20;;;;;;;19.22;73.99;100487.50;10322169;28;20030;-83
2022/09/09 15:52:49;;;;;;;3.35;1.05;;;;;;;18.72;75.86;100479.19;10321220;28;20038;-82
2022/09/09 15:57:52;;;;;;;2.85;0.93;;;;;;;18.45;77.84;100475.41;10328532;28;20121;-82
2022/09/09 16:02:53;;;;;;;4.82;1.95;;;;;;;18.40;76.06;100500.13;10341018;28;20066;-82
2022/09/09 16:07:54;;;;;;;12.20;2.15;;;;;;;18.20;75.85;100501.69;10319216;28;20138;-81
2022/09/09 16:12:54;;;;;;;5.13;1.70;;;;;;;17.89;78.43;100500.44;10316730;28;20583;-82
2022/09/09 16:17:55;;;;;;;4.90;4.00;;;;;;;17.75;80.32;100517.03;10320199;28;20050;-82
2022/09/09 16:22:57;;;;;;;2.50;1.08;;;;;;;17.58;79.76;100513.28;10332949;28;20131;-81
2022/09/09 16:27:57;;;;;;;8.25;2.47;;;;;;;17.38;82.01;100521.84;10326073;28;20081;-81
2022/09/09 16:32:58;;;;;;;3.05;1.20;;;;;;;17.32;82.90;100530.56;10316902;28;20121;-81
2022/09/09 16:37:58;;;;;;;12.07;2.28;;;;;;;17.27;83.71;100515.50;10319253;28;20030;-82
2022/09/09 16:42:59;;;;;;;5.55;1.45;;;;;;;17.22;80.83;100515.41;10318360;28;20041;-82
2022/09/09 16:48:00;;;;;;;3.50;1.30;;;;;;;17.05;81.78;100509.00;10317950;28;20402;-81
2022/09/09 16:53:05;;;;;;;5.97;1.52;;;;;;;16.88;82.38;100517.50;10349720;28;20111;-81
2022/09/09 16:58:08;;;;;;;4.13;1.52;;;;;;;16.77;83.96;100521.72;10352348;28;20113;-83
2022/09/09 17:03:12;;;;;;;9.88;1.58;;;;;;;16.54;86.10;100532.78;10355053;28;20078;-82
2022/09/09 17:08:13;;;;;;;4.78;2.67;;;;;;;16.15;89.41;100532.97;10365422;28;20142;-82
2022/09/09 17:13:14;;;;;;;6.25;3.15;;;;;;;15.93;91.67;100531.66;10350632;28;20473;-81
2022/09/09 17:18:16;;;;;;;2.85;1.75;;;;;;;16.00;91.49;100541.50;10318242;28;20089;-82
2022/09/09 17:23:16;;;;;;;6.38;2.08;;;;;;;15.91;94.38;100549.22;10317359;28;20046;-84
2022/09/09 17:28:24;;;;;;;4.65;2.08;;;;;;;15.64;97.35;100565.28;10354537;28;20393;-84
2022/09/09 17:33:26;;;;;;;8.18;4.60;;;;;;;15.37;100.00;100588.47;10343802;28;20050;-80
2022/09/09 17:38:28;;;;;;;5.70;2.45;;;;;;;14.97;100.00;100613.84;10316209;28;20039;-79
2022/09/09 17:43:28;;;;;;;7.45;2.83;;;;;;;14.61;100.00;100612.88;10339650;28;20085;-81
2022/09/09 17:48:30;;;;;;;4.13;2.35;;;;;;;14.31;100.00;100623.44;10324199;28;20092;-80
2022/09/09 17:53:31;;;;;;;6.25;2.40;;;;;;;14.03;100.00;100613.00;10338966;28;20070;-79
2022/09/09 17:58:31;;;;;;;5.35;2.10;;;;;;;13.75;100.00;100620.06;10322490;28;20046;-78
2022/09/09 18:03:36;;;;;;;7.10;2.13;;;;;;;13.58;100.00;100642.31;10324284;28;20121;-77
2022/09/09 18:08:37;;;;;;;5.13;1.88;;;;;;;13.38;100.00;100641.66;10339956;28;20039;-78
2022/09/09 18:13:38;;;;;;;6.07;2.47;;;;;;;13.22;100.00;100649.03;10323821;28;20125;-78
2022/09/09 18:18:38;;;;;;;2.92;1.90;;;;;;;13.14;100.00;100646.13;10319548;28;20380;-78
2022/09/09 18:23:41;;;;;;;6.55;2.08;;;;;;;13.11;100.00;100632.88;10321621;28;20120;-78
2022/09/09 18:28:42;;;;;;;6.07;2.03;;;;;;;13.11;100.00;100642.53;10310319;28;20487;-76
2022/09/09 18:33:44;;;;;;;8.15;2.78;;;;;;;13.09;100.00;100652.09;10305962;28;20104;-76
2022/09/09 18:38:44;;;;;;;5.47;2.72;;;;;;;13.07;100.00;100654.66;10299260;28;20083;-76
2022/09/09 18:43:45;;;;;;;4.47;1.65;;;;;;;13.04;100.00;100647.56;10350757;28;20044;-77
2022/09/09 18:48:46;;;;;;;7.97;2.17;;;;;;;12.99;100.00;100666.63;10346693;28;20042;-78
2022/09/09 18:53:51;;;;;;;4.85;2.78;;;;;;;12.98;100.00;100675.34;10331279;28;20042;-78
2022/09/09 18:58:56;;;;;;;7.00;2.13;;;;;;;12.98;100.00;100685.84;10320311;28;20141;-78
2022/09/09 19:03:57;;;;;;;6.20;3.08;;;;;;;12.94;100.00;100692.75;10367668;28;20383;-78
2022/09/09 19:08:58;;;;;;;9.25;2.20;;;;;;;12.93;100.00;100688.34;10342142;28;20038;-78
2022/09/09 19:14:00;;;;;;;4.20;2.22;;;;;;;12.95;100.00;100696.25;10326922;28;20114;-78
2022/09/09 19:19:04;;;;;;;4.53;2.30;;;;;;;12.88;100.00;100688.16;10334501;28;20121;-78
2022/09/09 19:24:13;;;;;;;3.72;2.38;;;;;;;12.89;100.00;100689.06;10329014;28;20043;-77
2022/09/09 19:29:21;;;;;;;4.75;2.63;;;;;;;12.91;100.00;100700.53;10330654;28;20514;-78
2022/09/09 19:34:21;;;;;;;4.05;2.58;;;;;;;12.95;100.00;100701.50;10320542;28;20116;-78
2022/09/09 19:39:22;;;;;;;8.63;2.78;;;;;;;12.96;100.00;100703.28;10318951;28;20120;-78
2022/09/09 19:44:22;;;;;;;5.03;2.40;;;;;;;12.86;100.00;100697.72;10322966;28;20087;-78
2022/09/09 19:49:24;;;;;;;7.07;2.92;;;;;;;12.75;100.00;100706.94;10328500;28;20490;-78
2022/09/09 19:54:24;;;;;;;5.80;2.95;;;;;;;12.82;100.00;100710.69;10360557;28;20120;-78
2022/09/09 19:59:26;;;;;;;6.88;3.22;;;;;;;12.95;100.00;100719.91;10321679;28;20030;-78
2022/09/09 20:04:27;;;;;;;4.13;2.80;;;;;;;13.03;100.00;100726.31;10318167;28;20160;-78
2022/09/09 20:09:29;;;;;;;8.57;3.70;;;;;;;13.02;100.00;100727.16;10324612;28;20045;-78
2022/09/09 20:14:29;;;;;;;5.90;3.88;;;;;;;13.04;100.00;100726.38;10315200;28;20524;-79
2022/09/09 20:19:31;;;;;;;7.05;3.70;;;;;;;13.10;100.00;100730.94;10319646;28;20037;-77
2022/09/09 20:24:32;;;;;;;9.52;4.50;;;;;;;13.15;100.00;100732.00;10333468;28;20081;-77
2022/09/09 20:29:32;;;;;;;8.10;4.57;;;;;;;13.22;100.00;100735.75;10335825;28;20113;-78
2022/09/09 20:34:33;;;;;;;7.63;4.38;;;;;;;13.27;100.00;100742.06;10311517;28;20041;-79
2022/09/09 20:39:36;;;;;;;11.85;6.40;;;;;;;13.32;100.00;100737.84;10340632;28;20046;-77
2022/09/09 20:44:37;;;;;;;8.95;5.75;;;;;;;13.33;100.00;100738.75;10317915;28;20031;-77
2022/09/09 20:49:39;;;;;;;9.40;5.50;;;;;;;13.43;100.00;100732.97;10311803;28;20504;-78
2022/09/09 20:54:40;;;;;;;6.88;4.47;;;;;;;13.41;100.00;100723.25;10335848;28;20073;-79
2022/09/09 20:59:43;;;;;;;10.53;6.33;;;;;;;13.52;100.00;100729.78;10326850;28;20034;-79
2022/09/09 21:04:44;;;;;;;13.93;6.22;;;;;;;13.59;100.00;100731.78;10320782;28;20042;-78
2022/09/09 21:09:45;;;;;;;10.20;4.80;;;;;;;13.62;100.00;100726.63;10319639;28;20047;-79
2022/09/09 21:14:45;;;;;;;8.43;4.65;;;;;;;13.63;100.00;100725.78;10337120;28;20390;-79
2022/09/09 21:19:45;;;;;;;14.10;5.13;;;;;;;13.58;100.00;100722.09;10326661;28;20463;-79
2022/09/09 21:24:46;;;;;;;10.00;6.10;;;;;;;13.47;100.00;100729.63;10317349;28;20073;-79
2022/09/09 21:29:47;;;;;;;11.30;4.72;;;;;;;13.34;100.00;100722.13;10332697;28;20079;-79
2022/09/09 21:34:47;;;;;;;12.93;5.05;;;;;;;13.22;100.00;100731.38;10349898;28;20039;-79
2022/09/09 21:39:48;;;;;;;11.52;5.82;;;;;;;13.09;100.00;100723.91;10323632;28;20188;-79
2022/09/09 21:44:48;;;;;;;10.98;4.60;;;;;;;12.99;100.00;100727.97;10316021;28;20181;-83
2022/09/09 21:49:49;;;;;;;19.45;5.85;;;;;;;13.02;100.00;100716.66;10332216;28;20045;-78
2022/09/09 21:54:50;;;;;;;17.15;6.82;;;;;;;12.88;100.00;100711.81;10318225;28;20117;-79
2022/09/09 21:59:51;;;;;;;8.43;4.97;;;;;;;12.77;100.00;100718.41;10337599;28;20511;-79
2022/09/09 22:04:52;;;;;;;11.20;4.32;;;;;;;12.74;100.00;100715.66;10334073;28;20046;-78
2022/09/09 22:09:52;;;;;;;11.30;4.80;;;;;;;12.70;100.00;100725.19;10333412;28;20502;-79
2022/09/09 22:14:55;;;;;;;7.95;3.72;;;;;;;12.68;100.00;100712.81;10351750;28;20049;-79
2022/09/09 22:19:55;;;;;;;15.35;6.32;;;;;;;12.69;100.00;100722.47;10329810;28;20034;-79
2022/09/09 22:24:56;;;;;;;11.25;4.25;;;;;;;12.59;100.00;100721.25;10330056;28;20200;-79
2022/09/09 22:29:56;;;;;;;9.75;3.47;;;;;;;12.50;100.00;100721.78;10359195;28;20511;-79
2022/09/09 22:34:57;;;;;;;6.75;3.53;;;;;;;12.52;100.00;100721.88;10334681;28;20066;-78
2022/09/09 22:39:59;;;;;;;12.10;2.53;;;;;;;12.47;100.00;100732.19;10358556;28;20065;-78
2022/09/09 22:45:00;;;;;;;11.40;3.13;;;;;;;12.46;100.00;100736.56;10332103;28;20273;-78
2022/09/09 22:50:00;;;;;;;9.75;4.32;;;;;;;12.41;100.00;100745.97;10323951;28;20047;-79
2022/09/09 22:55:01;;;;;;;9.60;2.67;;;;;;;12.43;100.00;100746.94;10282621;28;20085;-79
2022/09/09 23:00:06;;;;;;;9.48;3.90;;;;;;;12.43;100.00;100749.56;10299010;28;20518;-78